TFM - Tactical Decision Aid
ID: Runway Winds: CIG/VIS Threshold:

KUNV - State College/Univ P, PA, US

Updated at: 1855 UTC 26 Oct 2021
Latest TAF at: 1740 UTC 26 Oct 2021

TAF Board

Time1853Z 26/19Z 26/20Z 26/21Z 26/22Z 26/23Z 27/00Z 27/01Z 27/02Z 27/03Z 27/04Z 27/05Z 27/06Z 27/07Z>>
Type OBS PRVL PRVL PRVL PRVL PRVL PRVL PRVL PRVL PRVL PRVL PRVL PRVL PRVL
VIS 5 5 5 5 5 5 5 5 5 4 4 >6 >6 >6
CIG 19 17 17 17 17 17 17 17 17 15 15 15 15 15
Cover OVC OVC OVC OVC OVC OVC OVC OVC OVC OVC OVC OVC OVC OVC
FltCat MVFR MVFR MVFR MVFR MVFR MVFR MVFR MVFR MVFR MVFR MVFR MVFR MVFR MVFR
WX BR -RA -RA -RA -RA -RA -RA -RA -RA -RA BR -RA BR -- -- --
WDir 310 300 300 300 300 300 300 300 300 310 310 340 340 340
WSpd 10 16 16 16 16 16 16 16 16 15 15 15 15 15
WGst 19 33 33 33 33 33 33 33 33 28 28 26 26 26

TDA Impact Legend

  None Marginal Slight Moderate High
Visibility (sm) >5 3≤X≤5 2≤X<3 0.5≤X<2 <0.5
Ceiling (100 ft) >30 10≤X≤30 6≤X<10 2≤X<6 <2
Wind Speed (kt) <15 15≤X<25 25≤X<30 ≥30
Wind Gust (kt) <15 15≤X<25 25≤X<35 ≥35
Weather No Wx Reported VCTS -TS,-FZRA TS,FZRA +TS,+FZRA
TAF
KUNV 261740Z 2618/2718 30016G33KT 5SM -RA BKN017 OVC045
  FM270300 31015G28KT 4SM -RA BR OVC015
  FM270500 34015G26KT P6SM BKN015 OVC030


METAR
KUNV 261853Z 31010G19KT 5SM BR OVC019 08/06 A2960
KUNV 261753Z 30015G32KT 5SM -RA BR BKN018 OVC023 09/07 A2959
KUNV 261653Z 28016G23KT 8SM OVC017 09/06 A2961
KUNV 261553Z 31014G26KT 8SM BKN017 OVC045 09/07 A2959

Radar Display
Forecast Discussion